sensor_id;sensor_type;location;lat;lon;timestamp;pressure;altitude;pressure_sealevel;temperature;humidity
70009;BME280;59542;37.950;-122.338;2022-11-18T00:01:06;102036.44;;;15.47;46.11
70009;BME280;59542;37.950;-122.338;2022-11-18T00:03:32;102039.53;;;15.37;46.42
70009;BME280;59542;37.950;-122.338;2022-11-18T00:05:58;102047.00;;;15.48;46.28
70009;BME280;59542;37.950;-122.338;2022-11-18T00:08:25;102049.09;;;15.46;46.58
70009;BME280;59542;37.950;-122.338;2022-11-18T00:10:51;102047.44;;;15.32;46.97
70009;BME280;59542;37.950;-122.338;2022-11-18T00:13:18;102045.38;;;15.27;47.39
70009;BME280;59542;37.950;-122.338;2022-11-18T00:16:08;102042.25;;;15.24;47.55
70009;BME280;59542;37.950;-122.338;2022-11-18T00:18:35;102044.75;;;15.12;47.18
70009;BME280;59542;37.950;-122.338;2022-11-18T00:21:09;102038.53;;;15.12;47.39
70009;BME280;59542;37.950;-122.338;2022-11-18T00:23:37;102035.81;;;14.98;47.27
70009;BME280;59542;37.950;-122.338;2022-11-18T00:26:08;102038.09;;;15.01;47.66
70009;BME280;59542;37.950;-122.338;2022-11-18T00:28:36;102038.09;;;15.15;47.21
70009;BME280;59542;37.950;-122.338;2022-11-18T00:31:10;102040.19;;;15.19;46.88
70009;BME280;59542;37.950;-122.338;2022-11-18T00:33:37;102035.00;;;15.11;47.05
70009;BME280;59542;37.950;-122.338;2022-11-18T00:36:07;102037.06;;;14.89;46.92
70009;BME280;59542;37.950;-122.338;2022-11-18T00:38:34;102040.19;;;14.99;46.90
70009;BME280;59542;37.950;-122.338;2022-11-18T00:41:04;102036.22;;;14.89;46.68
70009;BME280;59542;37.950;-122.338;2022-11-18T00:43:32;102031.88;;;14.94;46.28
70009;BME280;59542;37.950;-122.338;2022-11-18T00:45:58;102020.66;;;14.84;46.68
70009;BME280;59542;37.950;-122.338;2022-11-18T00:48:25;102031.03;;;14.87;45.87
70009;BME280;59542;37.950;-122.338;2022-11-18T00:50:54;102022.09;;;14.73;45.91
70009;BME280;59542;37.950;-122.338;2022-11-18T00:53:23;102023.09;;;14.52;46.20
70009;BME280;59542;37.950;-122.338;2022-11-18T00:55:50;102019.91;;;14.36;46.98
70009;BME280;59542;37.950;-122.338;2022-11-18T00:58:16;102022.78;;;14.27;47.48
70009;BME280;59542;37.950;-122.338;2022-11-18T01:00:45;102027.09;;;14.22;47.92
70009;BME280;59542;37.950;-122.338;2022-11-18T01:03:13;102027.72;;;14.24;48.08
70009;BME280;59542;37.950;-122.338;2022-11-18T01:05:39;102027.69;;;14.11;48.46
70009;BME280;59542;37.950;-122.338;2022-11-18T01:08:07;102029.09;;;14.00;48.39
70009;BME280;59542;37.950;-122.338;2022-11-18T01:10:35;102033.75;;;13.85;48.26
70009;BME280;59542;37.950;-122.338;2022-11-18T01:13:02;102034.59;;;13.85;48.37
70009;BME280;59542;37.950;-122.338;2022-11-18T01:15:51;102026.28;;;13.80;48.23
70009;BME280;59542;37.950;-122.338;2022-11-18T01:18:21;102028.19;;;13.58;48.38
70009;BME280;59542;37.950;-122.338;2022-11-18T01:20:48;102033.78;;;13.57;48.25
70009;BME280;59542;37.950;-122.338;2022-11-18T01:23:15;102029.53;;;13.41;48.16
70009;BME280;59542;37.950;-122.338;2022-11-18T01:25:44;102023.47;;;13.32;48.46
70009;BME280;59542;37.950;-122.338;2022-11-18T01:28:11;102030.13;;;13.36;48.43
70009;BME280;59542;37.950;-122.338;2022-11-18T01:30:39;102026.84;;;13.41;47.98
70009;BME280;59542;37.950;-122.338;2022-11-18T01:33:06;102022.38;;;13.27;47.82
70009;BME280;59542;37.950;-122.338;2022-11-18T01:35:42;102020.31;;;13.22;47.67
70009;BME280;59542;37.950;-122.338;2022-11-18T01:38:13;102014.38;;;13.12;47.83
70009;BME280;59542;37.950;-122.338;2022-11-18T01:40:40;102021.63;;;13.11;47.67
70009;BME280;59542;37.950;-122.338;2022-11-18T01:43:14;102021.31;;;13.00;47.82
70009;BME280;59542;37.950;-122.338;2022-11-18T01:45:43;102025.16;;;12.90;48.15
70009;BME280;59542;37.950;-122.338;2022-11-18T01:48:30;102015.38;;;12.83;48.34
70009;BME280;59542;37.950;-122.338;2022-11-18T01:51:07;102019.56;;;12.71;48.23
70009;BME280;59542;37.950;-122.338;2022-11-18T01:53:49;102015.16;;;12.63;48.42
70009;BME280;59542;37.950;-122.338;2022-11-18T01:56:30;102016.03;;;12.49;48.82
70009;BME280;59542;37.950;-122.338;2022-11-18T01:59:12;102024.34;;;12.54;48.87
70009;BME280;59542;37.950;-122.338;2022-11-18T02:01:40;102028.28;;;12.36;48.78
70009;BME280;59542;37.950;-122.338;2022-11-18T02:04:08;102026.28;;;12.24;49.08
70009;BME280;59542;37.950;-122.338;2022-11-18T02:06:35;102034.19;;;12.10;49.13
70009;BME280;59542;37.950;-122.338;2022-11-18T02:09:02;102036.59;;;11.91;49.70
70009;BME280;59542;37.950;-122.338;2022-11-18T02:11:29;102033.31;;;11.80;49.56
70009;BME280;59542;37.950;-122.338;2022-11-18T02:14:14;102035.47;;;11.85;49.55
70009;BME280;59542;37.950;-122.338;2022-11-18T02:17:44;102040.38;;;11.29;50.72
70009;BME280;59542;37.950;-122.338;2022-11-18T02:25:13;102040.72;;;11.11;50.91
70009;BME280;59542;37.950;-122.338;2022-11-18T02:30:47;102028.38;;;11.02;51.69
70009;BME280;59542;37.950;-122.338;2022-11-18T02:34:08;102032.50;;;10.67;52.85
70009;BME280;59542;37.950;-122.338;2022-11-18T02:36:26;102034.59;;;10.79;52.54
70009;BME280;59542;37.950;-122.338;2022-11-18T02:38:58;102038.63;;;10.75;52.65
70009;BME280;59542;37.950;-122.338;2022-11-18T02:41:31;102035.09;;;10.13;54.30
70009;BME280;59542;37.950;-122.338;2022-11-18T02:44:09;102043.44;;;10.18;54.09
70009;BME280;59542;37.950;-122.338;2022-11-18T02:46:38;102041.50;;;10.43;53.34
70009;BME280;59542;37.950;-122.338;2022-11-18T02:49:28;102039.81;;;10.50;53.27
70009;BME280;59542;37.950;-122.338;2022-11-18T02:51:57;102041.59;;;10.18;53.81
70009;BME280;59542;37.950;-122.338;2022-11-18T02:54:25;102045.09;;;10.58;52.87
70009;BME280;59542;37.950;-122.338;2022-11-18T02:56:53;102048.56;;;10.36;52.65
70009;BME280;59542;37.950;-122.338;2022-11-18T02:59:20;102046.22;;;10.32;52.65
70009;BME280;59542;37.950;-122.338;2022-11-18T03:01:47;102053.91;;;10.36;52.81
70009;BME280;59542;37.950;-122.338;2022-11-18T03:04:14;102056.91;;;10.41;52.28
70009;BME280;59542;37.950;-122.338;2022-11-18T03:06:49;102049.53;;;10.43;52.29
70009;BME280;59542;37.950;-122.338;2022-11-18T03:09:35;102054.94;;;10.26;52.92
70009;BME280;59542;37.950;-122.338;2022-11-18T03:15:25;102052.38;;;10.41;53.13
70009;BME280;59542;37.950;-122.338;2022-11-18T03:28:39;102039.28;;;10.07;53.37
70009;BME280;59542;37.950;-122.338;2022-11-18T03:31:19;102036.34;;;9.94;54.08
70009;BME280;59542;37.950;-122.338;2022-11-18T03:33:59;102044.06;;;9.81;54.48
70009;BME280;59542;37.950;-122.338;2022-11-18T03:36:31;102042.75;;;9.60;55.15
70009;BME280;59542;37.950;-122.338;2022-11-18T03:38:59;102036.09;;;9.56;55.32
70009;BME280;59542;37.950;-122.338;2022-11-18T03:41:30;102025.44;;;9.40;55.99
70009;BME280;59542;37.950;-122.338;2022-11-18T03:44:03;102034.63;;;9.45;55.92
70009;BME280;59542;37.950;-122.338;2022-11-18T03:46:37;102037.78;;;9.41;56.15
70009;BME280;59542;37.950;-122.338;2022-11-18T03:49:07;102035.31;;;9.39;56.34
70009;BME280;59542;37.950;-122.338;2022-11-18T03:51:42;102042.75;;;9.60;55.71
70009;BME280;59542;37.950;-122.338;2022-11-18T03:54:15;102040.25;;;9.59;55.50
70009;BME280;59542;37.950;-122.338;2022-11-18T03:56:55;102038.75;;;9.64;55.62
70009;BME280;59542;37.950;-122.338;2022-11-18T03:59:33;102041.81;;;9.37;56.01
70009;BME280;59542;37.950;-122.338;2022-11-18T04:02:08;102035.97;;;9.49;55.44
70009;BME280;59542;37.950;-122.338;2022-11-18T04:04:36;102044.63;;;9.51;55.42
70009;BME280;59542;37.950;-122.338;2022-11-18T04:07:10;102040.81;;;9.21;56.51
70009;BME280;59542;37.950;-122.338;2022-11-18T04:09:46;102048.34;;;9.02;57.37
70009;BME280;59542;37.950;-122.338;2022-11-18T04:12:17;102059.84;;;9.18;56.49
70009;BME280;59542;37.950;-122.338;2022-11-18T04:14:45;102051.34;;;9.23;56.18
70009;BME280;59542;37.950;-122.338;2022-11-18T04:17:16;102057.84;;;9.20;56.57
70009;BME280;59542;37.950;-122.338;2022-11-18T04:19:44;102060.16;;;9.32;56.40
70009;BME280;59542;37.950;-122.338;2022-11-18T04:22:11;102060.84;;;9.25;56.24
70009;BME280;59542;37.950;-122.338;2022-11-18T04:24:37;102064.34;;;9.26;56.29
70009;BME280;59542;37.950;-122.338;2022-11-18T04:27:04;102068.03;;;9.25;56.30
70009;BME280;59542;37.950;-122.338;2022-11-18T04:29:31;102068.53;;;9.20;56.32
70009;BME280;59542;37.950;-122.338;2022-11-18T04:31:59;102062.84;;;9.15;56.50
70009;BME280;59542;37.950;-122.338;2022-11-18T04:34:26;102064.69;;;9.15;56.64
70009;BME280;59542;37.950;-122.338;2022-11-18T04:36:53;102063.84;;;9.06;57.09
70009;BME280;59542;37.950;-122.338;2022-11-18T04:39:19;102059.53;;;9.05;56.80
70009;BME280;59542;37.950;-122.338;2022-11-18T04:41:45;102059.84;;;9.02;56.96
70009;BME280;59542;37.950;-122.338;2022-11-18T04:44:28;102061.66;;;8.93;56.97
70009;BME280;59542;37.950;-122.338;2022-11-18T04:46:56;102055.34;;;8.94;57.42
70009;BME280;59542;37.950;-122.338;2022-11-18T04:49:23;102061.34;;;8.96;57.42
70009;BME280;59542;37.950;-122.338;2022-11-18T04:51:50;102052.81;;;8.93;57.25
70009;BME280;59542;37.950;-122.338;2022-11-18T04:54:17;102057.66;;;8.89;57.62
70009;BME280;59542;37.950;-122.338;2022-11-18T04:56:46;102058.50;;;8.90;57.51
70009;BME280;59542;37.950;-122.338;2022-11-18T04:59:13;102063.16;;;8.80;57.66
70009;BME280;59542;37.950;-122.338;2022-11-18T05:01:40;102061.16;;;8.73;57.90
70009;BME280;59542;37.950;-122.338;2022-11-18T05:04:06;102059.63;;;8.71;58.01
70009;BME280;59542;37.950;-122.338;2022-11-18T05:06:33;102056.81;;;8.72;58.03
70009;BME280;59542;37.950;-122.338;2022-11-18T05:09:00;102057.44;;;8.50;58.76
70009;BME280;59542;37.950;-122.338;2022-11-18T05:11:27;102053.28;;;8.56;58.64
70009;BME280;59542;37.950;-122.338;2022-11-18T05:14:12;102059.56;;;8.46;58.92
70009;BME280;59542;37.950;-122.338;2022-11-18T05:16:38;102060.09;;;8.58;59.05
70009;BME280;59542;37.950;-122.338;2022-11-18T05:19:05;102051.22;;;8.41;59.30
70009;BME280;59542;37.950;-122.338;2022-11-18T05:21:31;102061.38;;;8.38;59.25
70009;BME280;59542;37.950;-122.338;2022-11-18T05:23:59;102054.81;;;8.32;59.62
70009;BME280;59542;37.950;-122.338;2022-11-18T05:26:25;102051.47;;;8.30;59.65
70009;BME280;59542;37.950;-122.338;2022-11-18T05:28:52;102046.97;;;8.23;59.77
70009;BME280;59542;37.950;-122.338;2022-11-18T05:31:18;102042.47;;;8.23;59.46
70009;BME280;59542;37.950;-122.338;2022-11-18T05:33:45;102044.22;;;8.06;60.00
70009;BME280;59542;37.950;-122.338;2022-11-18T05:36:13;102035.81;;;7.93;60.11
70009;BME280;59542;37.950;-122.338;2022-11-18T05:38:40;102038.56;;;7.49;61.70
70009;BME280;59542;37.950;-122.338;2022-11-18T05:41:07;102038.25;;;7.52;61.65
70009;BME280;59542;37.950;-122.338;2022-11-18T05:43:34;102039.81;;;7.63;61.40
70009;BME280;59542;37.950;-122.338;2022-11-18T05:46:02;102037.69;;;7.66;61.02
70009;BME280;59542;37.950;-122.338;2022-11-18T05:48:28;102045.31;;;7.61;61.40
70009;BME280;59542;37.950;-122.338;2022-11-18T05:50:55;102042.44;;;7.29;62.54
70009;BME280;59542;37.950;-122.338;2022-11-18T05:53:23;102045.00;;;7.64;61.31
70009;BME280;59542;37.950;-122.338;2022-11-18T05:58:40;102052.69;;;7.67;61.39
70009;BME280;59542;37.950;-122.338;2022-11-18T06:01:06;102045.41;;;7.78;60.96
70009;BME280;59542;37.950;-122.338;2022-11-18T06:03:37;102056.13;;;7.86;60.91
70009;BME280;59542;37.950;-122.338;2022-11-18T06:06:07;102050.63;;;7.87;61.08
70009;BME280;59542;37.950;-122.338;2022-11-18T06:08:43;102044.06;;;7.74;61.68
70009;BME280;59542;37.950;-122.338;2022-11-18T06:11:13;102047.00;;;7.97;62.15
70009;BME280;59542;37.950;-122.338;2022-11-18T06:14:31;102046.03;;;7.72;62.46
70009;BME280;59542;37.950;-122.338;2022-11-18T06:16:30;102045.69;;;7.66;62.69
70009;BME280;59542;37.950;-122.338;2022-11-18T06:19:00;102037.69;;;7.66;62.34
70009;BME280;59542;37.950;-122.338;2022-11-18T06:21:27;102034.34;;;7.64;62.56
70009;BME280;59542;37.950;-122.338;2022-11-18T06:23:54;102033.31;;;7.57;62.91
70009;BME280;59542;37.950;-122.338;2022-11-18T06:26:21;102025.59;;;7.54;63.18
70009;BME280;59542;37.950;-122.338;2022-11-18T06:28:47;102027.59;;;7.52;62.83
70009;BME280;59542;37.950;-122.338;2022-11-18T06:31:14;102029.16;;;7.37;63.23
70009;BME280;59542;37.950;-122.338;2022-11-18T06:33:42;102032.41;;;7.23;63.73
70009;BME280;59542;37.950;-122.338;2022-11-18T06:36:08;102023.41;;;7.24;63.50
70009;BME280;59542;37.950;-122.338;2022-11-18T06:38:34;102025.63;;;7.28;63.34
70009;BME280;59542;37.950;-122.338;2022-11-18T06:41:01;102023.00;;;7.36;63.17
70009;BME280;59542;37.950;-122.338;2022-11-18T06:43:27;102023.47;;;7.58;62.90
70009;BME280;59542;37.950;-122.338;2022-11-18T06:46:11;102020.06;;;7.74;63.60
70009;BME280;59542;37.950;-122.338;2022-11-18T06:48:56;102020.50;;;7.35;64.66
70009;BME280;59542;37.950;-122.338;2022-11-18T06:51:23;102019.84;;;7.33;64.59
70009;BME280;59542;37.950;-122.338;2022-11-18T06:53:50;102020.16;;;7.12;65.37
70009;BME280;59542;37.950;-122.338;2022-11-18T06:56:17;102024.78;;;7.28;65.31
70009;BME280;59542;37.950;-122.338;2022-11-18T06:58:44;102021.06;;;7.21;65.17
70009;BME280;59542;37.950;-122.338;2022-11-18T07:01:15;102015.97;;;7.09;65.44
70009;BME280;59542;37.950;-122.338;2022-11-18T07:03:43;102007.72;;;7.21;65.22
70009;BME280;59542;37.950;-122.338;2022-11-18T07:06:11;102008.63;;;7.29;65.08
70009;BME280;59542;37.950;-122.338;2022-11-18T07:08:38;102005.50;;;7.34;65.40
70009;BME280;59542;37.950;-122.338;2022-11-18T07:11:07;102004.50;;;7.09;65.76
70009;BME280;59542;37.950;-122.338;2022-11-18T07:13:34;102007.31;;;7.07;66.43
70009;BME280;59542;37.950;-122.338;2022-11-18T07:16:04;102001.41;;;6.96;66.57
70009;BME280;59542;37.950;-122.338;2022-11-18T07:18:35;101997.44;;;6.82;66.87
70009;BME280;59542;37.950;-122.338;2022-11-18T07:21:07;101996.47;;;6.83;66.94
70009;BME280;59542;37.950;-122.338;2022-11-18T07:23:34;101998.38;;;6.73;67.91
70009;BME280;59542;37.950;-122.338;2022-11-18T07:26:01;101995.22;;;6.77;67.94
70009;BME280;59542;37.950;-122.338;2022-11-18T07:28:28;102000.81;;;6.84;67.38
70009;BME280;59542;37.950;-122.338;2022-11-18T07:31:20;102002.59;;;7.01;66.99
70009;BME280;59542;37.950;-122.338;2022-11-18T07:33:47;101999.31;;;7.07;67.64
70009;BME280;59542;37.950;-122.338;2022-11-18T07:36:20;102004.00;;;6.70;69.17
70009;BME280;59542;37.950;-122.338;2022-11-18T07:38:47;102003.00;;;6.53;70.55
70009;BME280;59542;37.950;-122.338;2022-11-18T07:41:23;101999.34;;;6.54;70.40
70009;BME280;59542;37.950;-122.338;2022-11-18T07:43:50;101999.03;;;6.75;69.77
70009;BME280;59542;37.950;-122.338;2022-11-18T07:48:49;101988.34;;;6.67;69.30
70009;BME280;59542;37.950;-122.338;2022-11-18T07:51:18;101992.97;;;6.65;69.02
70009;BME280;59542;37.950;-122.338;2022-11-18T07:53:45;101994.25;;;6.60;69.05
70009;BME280;59542;37.950;-122.338;2022-11-18T07:56:13;101996.38;;;6.75;68.57
70009;BME280;59542;37.950;-122.338;2022-11-18T07:58:40;101992.56;;;6.59;69.01
70009;BME280;59542;37.950;-122.338;2022-11-18T08:01:07;101993.88;;;6.73;68.29
70009;BME280;59542;37.950;-122.338;2022-11-18T08:03:34;101992.34;;;6.53;68.76
70009;BME280;59542;37.950;-122.338;2022-11-18T08:06:01;101995.16;;;6.51;68.58
70009;BME280;59542;37.950;-122.338;2022-11-18T08:08:28;101981.94;;;6.59;68.25
70009;BME280;59542;37.950;-122.338;2022-11-18T08:10:59;101979.50;;;6.48;68.57
70009;BME280;59542;37.950;-122.338;2022-11-18T08:13:26;101974.94;;;6.58;68.01
70009;BME280;59542;37.950;-122.338;2022-11-18T08:15:53;101978.16;;;6.44;68.35
70009;BME280;59542;37.950;-122.338;2022-11-18T08:18:20;101971.13;;;6.43;68.00
70009;BME280;59542;37.950;-122.338;2022-11-18T08:20:46;101977.91;;;6.38;68.05
70009;BME280;59542;37.950;-122.338;2022-11-18T08:23:14;101969.19;;;6.27;68.38
70009;BME280;59542;37.950;-122.338;2022-11-18T08:25:41;101967.41;;;6.18;68.49
70009;BME280;59542;37.950;-122.338;2022-11-18T08:28:08;101958.44;;;6.19;68.20
70009;BME280;59542;37.950;-122.338;2022-11-18T08:30:35;101957.28;;;6.22;68.27
70009;BME280;59542;37.950;-122.338;2022-11-18T08:33:01;101956.53;;;6.12;68.44
70009;BME280;59542;37.950;-122.338;2022-11-18T08:35:28;101965.19;;;6.14;68.49
70009;BME280;59542;37.950;-122.338;2022-11-18T08:37:55;101969.84;;;6.29;68.35
70009;BME280;59542;37.950;-122.338;2022-11-18T08:40:21;101960.16;;;6.11;69.09
70009;BME280;59542;37.950;-122.338;2022-11-18T08:42:47;101961.34;;;5.98;69.71
70009;BME280;59542;37.950;-122.338;2022-11-18T08:45:14;101954.09;;;5.91;70.20
70009;BME280;59542;37.950;-122.338;2022-11-18T08:47:40;101950.19;;;5.95;69.94
70009;BME280;59542;37.950;-122.338;2022-11-18T08:50:07;101954.09;;;6.00;69.99
70009;BME280;59542;37.950;-122.338;2022-11-18T08:52:34;101942.34;;;5.93;70.26
70009;BME280;59542;37.950;-122.338;2022-11-18T08:55:02;101925.03;;;5.89;70.73
70009;BME280;59542;37.950;-122.338;2022-11-18T08:57:29;101925.75;;;5.91;70.72
70009;BME280;59542;37.950;-122.338;2022-11-18T08:59:55;101926.00;;;5.88;70.97
70009;BME280;59542;37.950;-122.338;2022-11-18T09:02:22;101927.13;;;5.95;71.23
70009;BME280;59542;37.950;-122.338;2022-11-18T09:04:52;101925.81;;;5.99;71.02
70009;BME280;59542;37.950;-122.338;2022-11-18T09:07:19;101929.41;;;6.08;70.90
70009;BME280;59542;37.950;-122.338;2022-11-18T09:09:46;101929.19;;;6.01;71.47
70009;BME280;59542;37.950;-122.338;2022-11-18T09:12:13;101929.78;;;5.95;71.89
70009;BME280;59542;37.950;-122.338;2022-11-18T09:14:46;101924.25;;;6.06;71.85
70009;BME280;59542;37.950;-122.338;2022-11-18T09:17:12;101924.25;;;6.06;71.65
70009;BME280;59542;37.950;-122.338;2022-11-18T09:19:40;101924.94;;;6.08;71.23
70009;BME280;59542;37.950;-122.338;2022-11-18T09:22:07;101924.47;;;5.95;71.24
70009;BME280;59542;37.950;-122.338;2022-11-18T09:24:34;101921.03;;;6.03;70.77
70009;BME280;59542;37.950;-122.338;2022-11-18T09:27:04;101915.50;;;5.87;70.90
70009;BME280;59542;37.950;-122.338;2022-11-18T09:29:31;101918.88;;;5.89;70.71
70009;BME280;59542;37.950;-122.338;2022-11-18T09:31:58;101927.69;;;5.89;70.58
70009;BME280;59542;37.950;-122.338;2022-11-18T09:34:27;101923.50;;;5.87;70.72
70009;BME280;59542;37.950;-122.338;2022-11-18T09:36:53;101923.47;;;5.96;70.39
70009;BME280;59542;37.950;-122.338;2022-11-18T09:39:22;101928.47;;;5.99;70.68
70009;BME280;59542;37.950;-122.338;2022-11-18T09:42:10;101924.84;;;6.00;71.14
70009;BME280;59542;37.950;-122.338;2022-11-18T09:47:26;101930.59;;;5.96;71.92
70009;BME280;59542;37.950;-122.338;2022-11-18T09:49:58;101916.03;;;6.00;71.92
70009;BME280;59542;37.950;-122.338;2022-11-18T09:52:42;101918.94;;;6.06;71.61
70009;BME280;59542;37.950;-122.338;2022-11-18T09:55:16;101912.22;;;5.75;72.37
70009;BME280;59542;37.950;-122.338;2022-11-18T09:57:47;101898.28;;;5.73;72.29
70009;BME280;59542;37.950;-122.338;2022-11-18T10:00:23;101892.31;;;5.61;72.29
70009;BME280;59542;37.950;-122.338;2022-11-18T10:03:04;101891.22;;;5.54;72.07
70009;BME280;59542;37.950;-122.338;2022-11-18T10:05:49;101872.78;;;5.52;71.92
70009;BME280;59542;37.950;-122.338;2022-11-18T10:11:20;101888.91;;;5.41;71.69
70009;BME280;59542;37.950;-122.338;2022-11-18T10:14:05;101895.72;;;5.44;71.91
70009;BME280;59542;37.950;-122.338;2022-11-18T10:17:00;101895.81;;;5.34;72.33
70009;BME280;59542;37.950;-122.338;2022-11-18T10:25:19;101882.13;;;5.29;72.95
70009;BME280;59542;37.950;-122.338;2022-11-18T10:27:47;101888.84;;;5.23;72.91
70009;BME280;59542;37.950;-122.338;2022-11-18T10:30:20;101889.78;;;5.32;72.75
70009;BME280;59542;37.950;-122.338;2022-11-18T10:33:01;101881.03;;;5.22;73.03
70009;BME280;59542;37.950;-122.338;2022-11-18T10:35:35;101872.69;;;5.17;73.16
70009;BME280;59542;37.950;-122.338;2022-11-18T10:46:27;101876.81;;;5.56;73.57
70009;BME280;59542;37.950;-122.338;2022-11-18T10:49:13;101874.50;;;5.44;73.70
70009;BME280;59542;37.950;-122.338;2022-11-18T10:51:46;101878.88;;;5.35;73.93
70009;BME280;59542;37.950;-122.338;2022-11-18T10:57:14;101884.38;;;5.24;74.11
70009;BME280;59542;37.950;-122.338;2022-11-18T10:59:50;101872.22;;;5.21;73.74
70009;BME280;59542;37.950;-122.338;2022-11-18T11:04:51;101861.09;;;5.08;73.55
70009;BME280;59542;37.950;-122.338;2022-11-18T11:07:32;101858.88;;;5.03;73.68
70009;BME280;59542;37.950;-122.338;2022-11-18T11:12:45;101864.44;;;5.10;73.47
70009;BME280;59542;37.950;-122.338;2022-11-18T11:15:34;101861.16;;;5.26;74.03
70009;BME280;59542;37.950;-122.338;2022-11-18T11:18:09;101869.22;;;5.07;74.66
70009;BME280;59542;37.950;-122.338;2022-11-18T11:20:55;101861.13;;;4.98;74.84
70009;BME280;59542;37.950;-122.338;2022-11-18T11:23:25;101855.53;;;5.01;75.28
70009;BME280;59542;37.950;-122.338;2022-11-18T11:26:06;101862.66;;;5.01;74.48
70009;BME280;59542;37.950;-122.338;2022-11-18T11:34:16;101865.34;;;4.91;74.06
70009;BME280;59542;37.950;-122.338;2022-11-18T11:45:28;101858.66;;;4.87;73.83
70009;BME280;59542;37.950;-122.338;2022-11-18T11:48:12;101846.63;;;4.93;73.55
70009;BME280;59542;37.950;-122.338;2022-11-18T11:56:52;101845.69;;;4.84;74.23
70009;BME280;59542;37.950;-122.338;2022-11-18T12:02:24;101847.22;;;4.77;74.11
70009;BME280;59542;37.950;-122.338;2022-11-18T12:04:59;101851.69;;;4.76;74.54
70009;BME280;59542;37.950;-122.338;2022-11-18T12:07:32;101846.53;;;4.65;76.01
70009;BME280;59542;37.950;-122.338;2022-11-18T12:18:38;101846.03;;;4.99;76.39
70009;BME280;59542;37.950;-122.338;2022-11-18T12:21:06;101844.13;;;4.91;76.86
70009;BME280;59542;37.950;-122.338;2022-11-18T12:23:33;101840.31;;;4.94;76.60
70009;BME280;59542;37.950;-122.338;2022-11-18T12:36:53;101832.38;;;4.94;80.12
70009;BME280;59542;37.950;-122.338;2022-11-18T12:42:02;101835.13;;;5.12;79.00
70009;BME280;59542;37.950;-122.338;2022-11-18T12:44:49;101838.38;;;5.33;77.87
70009;BME280;59542;37.950;-122.338;2022-11-18T12:50:10;101845.66;;;5.21;77.62
70009;BME280;59542;37.950;-122.338;2022-11-18T12:55:32;101841.53;;;5.09;78.53
70009;BME280;59542;37.950;-122.338;2022-11-18T12:58:02;101836.03;;;5.20;77.93
70009;BME280;59542;37.950;-122.338;2022-11-18T13:00:30;101837.97;;;5.28;77.26
70009;BME280;59542;37.950;-122.338;2022-11-18T13:02:59;101827.22;;;5.29;77.40
70009;BME280;59542;37.950;-122.338;2022-11-18T13:05:33;101835.34;;;5.28;77.22
70009;BME280;59542;37.950;-122.338;2022-11-18T13:08:05;101833.38;;;5.48;76.23
70009;BME280;59542;37.950;-122.338;2022-11-18T13:10:52;101826.06;;;5.32;76.32
70009;BME280;59542;37.950;-122.338;2022-11-18T13:13:40;101827.06;;;5.31;76.22
70009;BME280;59542;37.950;-122.338;2022-11-18T13:16:24;101831.38;;;5.32;76.45
70009;BME280;59542;37.950;-122.338;2022-11-18T13:19:20;101826.22;;;5.30;76.32
70009;BME280;59542;37.950;-122.338;2022-11-18T13:21:56;101825.00;;;5.25;76.78
70009;BME280;59542;37.950;-122.338;2022-11-18T13:24:48;101831.94;;;5.36;76.57
70009;BME280;59542;37.950;-122.338;2022-11-18T13:30:12;101827.38;;;5.28;76.70
70009;BME280;59542;37.950;-122.338;2022-11-18T13:32:43;101834.78;;;5.24;76.40
70009;BME280;59542;37.950;-122.338;2022-11-18T13:35:13;101839.88;;;5.08;76.72
70009;BME280;59542;37.950;-122.338;2022-11-18T13:37:52;101823.91;;;5.18;76.77
70009;BME280;59542;37.950;-122.338;2022-11-18T13:40:25;101834.28;;;5.11;76.85
70009;BME280;59542;37.950;-122.338;2022-11-18T13:42:52;101837.06;;;5.10;76.47
70009;BME280;59542;37.950;-122.338;2022-11-18T13:45:18;101835.13;;;5.12;76.03
70009;BME280;59542;37.950;-122.338;2022-11-18T13:47:51;101844.84;;;5.21;75.57
70009;BME280;59542;37.950;-122.338;2022-11-18T13:50:40;101841.13;;;5.04;75.95
70009;BME280;59542;37.950;-122.338;2022-11-18T13:53:31;101847.72;;;5.00;75.90
70009;BME280;59542;37.950;-122.338;2022-11-18T13:56:05;101850.63;;;5.07;75.76
70009;BME280;59542;37.950;-122.338;2022-11-18T14:01:21;101848.09;;;5.05;76.09
70009;BME280;59542;37.950;-122.338;2022-11-18T14:03:54;101852.88;;;5.01;76.52
70009;BME280;59542;37.950;-122.338;2022-11-18T14:06:34;101842.16;;;4.93;77.11
70009;BME280;59542;37.950;-122.338;2022-11-18T14:11:41;101841.19;;;4.94;77.39
70009;BME280;59542;37.950;-122.338;2022-11-18T14:14:11;101832.50;;;5.02;76.82
70009;BME280;59542;37.950;-122.338;2022-11-18T14:16:41;101829.28;;;4.98;76.82
70009;BME280;59542;37.950;-122.338;2022-11-18T14:19:27;101826.22;;;4.93;76.43
70009;BME280;59542;37.950;-122.338;2022-11-18T14:22:02;101817.59;;;4.91;76.42
70009;BME280;59542;37.950;-122.338;2022-11-18T14:24:29;101813.28;;;4.90;76.21
70009;BME280;59542;37.950;-122.338;2022-11-18T14:26:55;101809.63;;;4.91;76.28
70009;BME280;59542;37.950;-122.338;2022-11-18T14:29:22;101806.88;;;4.83;76.19
70009;BME280;59542;37.950;-122.338;2022-11-18T14:34:36;101805.50;;;4.79;76.53
70009;BME280;59542;37.950;-122.338;2022-11-18T14:37:09;101810.94;;;4.78;76.84
70009;BME280;59542;37.950;-122.338;2022-11-18T14:39:37;101823.41;;;5.04;75.93
70009;BME280;59542;37.950;-122.338;2022-11-18T14:42:03;101836.81;;;5.03;76.10
70009;BME280;59542;37.950;-122.338;2022-11-18T14:44:31;101820.66;;;4.96;76.18
70009;BME280;59542;37.950;-122.338;2022-11-18T14:49:26;101830.56;;;4.94;76.33